createdAt,value
2023-05-16T00:00:23.918Z,1.50
2023-05-16T00:02:51.402Z,0.80
2023-05-16T00:05:18.147Z,1.35
2023-05-16T00:07:46.276Z,1.38
2023-05-16T00:10:13.183Z,1.55
2023-05-16T00:12:40.193Z,1.63
2023-05-16T00:15:08.784Z,1.15
2023-05-16T00:17:35.943Z,0.90
2023-05-16T00:20:11.185Z,1.38
2023-05-16T00:22:38.300Z,0.65
2023-05-16T00:25:05.247Z,1.83
2023-05-16T00:27:34.330Z,0.98
2023-05-16T00:30:01.664Z,0.90
2023-05-16T00:32:28.321Z,0.90
2023-05-16T00:34:54.849Z,0.95
2023-05-16T00:37:21.409Z,1.30
2023-05-16T00:39:47.885Z,1.13
2023-05-16T00:42:14.602Z,1.13
2023-05-16T00:44:41.651Z,1.42
2023-05-16T00:47:08.189Z,1.35
2023-05-16T00:49:34.729Z,1.35
2023-05-16T00:52:01.338Z,1.00
2023-05-16T00:54:29.307Z,0.98
2023-05-16T00:56:59.299Z,1.00
2023-05-16T00:59:26.384Z,0.95
2023-05-16T01:01:53.186Z,1.55
2023-05-16T01:04:20.970Z,1.25
2023-05-16T01:06:47.588Z,2.17
2023-05-16T01:09:14.772Z,0.75
2023-05-16T01:12:01.163Z,1.58
2023-05-16T01:14:55.891Z,0.98
2023-05-16T01:17:40.715Z,1.15
2023-05-16T01:20:15.347Z,1.73
2023-05-16T01:22:46.117Z,1.40
2023-05-16T01:25:46.850Z,0.95
2023-05-16T01:30:41.684Z,1.73
2023-05-16T01:33:09.734Z,1.00
2023-05-16T01:36:14.362Z,0.75
2023-05-16T01:38:49.781Z,0.80
2023-05-16T01:41:24.888Z,1.10
2023-05-16T01:44:02.561Z,1.50
2023-05-16T01:46:33.507Z,0.80
2023-05-16T01:49:17.006Z,1.88
2023-05-16T01:51:51.571Z,1.10
2023-05-16T01:54:19.610Z,1.30
2023-05-16T01:56:52.514Z,0.80
2023-05-16T01:59:21.633Z,1.17
2023-05-16T02:01:48.390Z,0.90
2023-05-16T02:04:15.908Z,0.98
2023-05-16T02:06:42.604Z,1.75
2023-05-16T02:09:09.330Z,1.17
2023-05-16T02:11:35.841Z,1.23
2023-05-16T02:14:02.366Z,1.10
2023-05-16T02:16:31.508Z,1.23
2023-05-16T02:18:58.094Z,1.15
2023-05-16T02:21:25.288Z,1.23
2023-05-16T02:23:51.813Z,1.42
2023-05-16T02:26:18.512Z,1.85
2023-05-16T02:28:45.108Z,1.38
2023-05-16T02:31:11.955Z,1.35
2023-05-16T02:33:38.519Z,1.67
2023-05-16T02:36:05.156Z,1.40
2023-05-16T02:38:31.697Z,0.70
2023-05-16T02:40:58.165Z,1.10
2023-05-16T02:43:24.787Z,0.95
2023-05-16T02:45:51.674Z,0.88
2023-05-16T02:48:18.377Z,1.50
2023-05-16T02:50:44.846Z,0.80
2023-05-16T02:53:11.638Z,1.63
2023-05-16T02:55:38.343Z,1.20
2023-05-16T02:58:05.070Z,0.75
2023-05-16T03:00:31.700Z,1.55
2023-05-16T03:02:58.423Z,1.10
2023-05-16T03:05:26.824Z,1.00
2023-05-16T03:07:53.876Z,0.70
2023-05-16T03:10:20.439Z,1.08
2023-05-16T03:12:47.040Z,1.27
2023-05-16T03:15:13.530Z,1.38
2023-05-16T03:17:40.120Z,1.25
2023-05-16T03:20:08.969Z,1.55
2023-05-16T03:22:35.613Z,2.28
2023-05-16T03:25:02.702Z,0.73
2023-05-16T03:27:29.213Z,1.23
2023-05-16T03:29:55.743Z,1.08
2023-05-16T03:32:22.309Z,1.25
2023-05-16T03:34:48.908Z,1.02
2023-05-16T03:37:16.178Z,1.45
2023-05-16T03:39:42.694Z,1.05
2023-05-16T03:42:09.196Z,0.50
2023-05-16T03:44:35.805Z,1.67
2023-05-16T03:47:02.317Z,1.02
2023-05-16T03:49:28.827Z,1.92
2023-05-16T03:51:55.652Z,0.93
2023-05-16T03:54:22.428Z,1.10
2023-05-16T03:56:48.913Z,1.52
2023-05-16T03:59:15.414Z,1.25
2023-05-16T04:01:41.998Z,1.15
2023-05-16T04:04:08.515Z,1.25
2023-05-16T04:06:35.046Z,1.63
2023-05-16T04:09:01.597Z,0.55
2023-05-16T04:11:28.512Z,1.58
2023-05-16T04:13:55.092Z,1.10
2023-05-16T04:16:21.689Z,1.67
2023-05-16T04:18:48.274Z,0.65
2023-05-16T04:21:15.416Z,0.50
2023-05-16T04:23:42.494Z,1.13
2023-05-16T04:26:09.132Z,1.45
2023-05-16T04:28:36.031Z,1.60
2023-05-16T04:31:03.146Z,1.05
2023-05-16T04:33:29.845Z,1.75
2023-05-16T04:35:58.485Z,0.55
2023-05-16T04:38:25.148Z,0.50
2023-05-16T04:40:51.932Z,0.50
2023-05-16T04:43:19.103Z,2.22
2023-05-16T04:45:45.593Z,1.80
2023-05-16T04:48:12.266Z,0.88
2023-05-16T04:50:38.748Z,1.13
2023-05-16T04:53:05.568Z,1.58
2023-05-16T04:55:32.165Z,0.88
2023-05-16T04:57:58.712Z,0.77
2023-05-16T05:00:25.984Z,0.93
2023-05-16T05:02:52.797Z,1.10
2023-05-16T05:05:19.510Z,0.35
2023-05-16T05:07:46.562Z,0.82
2023-05-16T05:10:13.398Z,0.50
2023-05-16T05:12:39.917Z,0.57
2023-05-16T05:15:07.143Z,1.73
2023-05-16T05:17:33.907Z,1.20
2023-05-16T05:20:02.690Z,1.02
2023-05-16T05:22:29.985Z,0.57
2023-05-16T05:24:56.619Z,1.13
2023-05-16T05:27:23.389Z,0.80
2023-05-16T05:29:49.904Z,0.80
2023-05-16T05:32:16.525Z,1.23
2023-05-16T05:34:43.504Z,0.60
2023-05-16T05:37:10.070Z,0.68
2023-05-16T05:39:36.616Z,0.90
2023-05-16T05:42:05.994Z,0.63
2023-05-16T05:44:33.313Z,0.68
2023-05-16T05:46:59.884Z,0.70
2023-05-16T05:49:29.588Z,0.88
2023-05-16T05:51:56.261Z,0.60
2023-05-16T05:54:23.560Z,0.82
2023-05-16T05:56:49.976Z,0.40
2023-05-16T05:59:16.560Z,0.73
2023-05-16T06:01:44.479Z,0.93
2023-05-16T06:04:11.442Z,1.77
2023-05-16T06:06:38.484Z,0.65
2023-05-16T06:09:05.038Z,1.23
2023-05-16T06:11:31.890Z,1.30
2023-05-16T06:13:58.854Z,0.70
2023-05-16T06:16:26.067Z,1.02
2023-05-16T06:18:52.642Z,0.80
2023-05-16T06:21:19.235Z,0.95
2023-05-16T06:23:46.161Z,2.08
2023-05-16T06:26:12.708Z,1.15
2023-05-16T06:28:39.233Z,1.13
2023-05-16T06:31:05.933Z,0.85
2023-05-16T06:33:32.629Z,1.00
2023-05-16T06:35:59.207Z,0.60
2023-05-16T06:38:25.724Z,1.10
2023-05-16T06:40:52.231Z,1.02
2023-05-16T06:43:18.733Z,0.40
2023-05-16T06:45:46.686Z,1.05
2023-05-16T06:48:15.340Z,0.60
2023-05-16T06:50:42.347Z,0.30
2023-05-16T06:53:08.908Z,0.52
2023-05-16T06:55:35.595Z,0.50
2023-05-16T06:58:02.312Z,0.80
2023-05-16T07:00:28.837Z,0.40
2023-05-16T07:02:55.749Z,0.77
2023-05-16T07:05:22.400Z,1.17
2023-05-16T07:07:49.691Z,0.45
2023-05-16T07:10:16.536Z,0.50
2023-05-16T07:12:43.509Z,0.50
2023-05-16T07:15:10.749Z,0.60
2023-05-16T07:17:37.488Z,0.47
2023-05-16T07:20:05.441Z,1.40
2023-05-16T07:22:32.375Z,0.35
2023-05-16T07:25:01.294Z,0.65
2023-05-16T07:27:28.456Z,0.98
2023-05-16T07:29:55.127Z,1.05
2023-05-16T07:32:21.770Z,0.90
2023-05-16T07:34:48.454Z,1.25
2023-05-16T07:37:16.240Z,0.40
2023-05-16T07:39:43.011Z,0.47
2023-05-16T07:42:09.825Z,0.57
2023-05-16T07:44:36.443Z,0.30
2023-05-16T07:47:03.443Z,0.43
2023-05-16T07:49:30.008Z,0.88
2023-05-16T07:51:56.797Z,0.57
2023-05-16T07:54:23.488Z,1.25
2023-05-16T07:56:50.019Z,0.68
2023-05-16T07:59:16.662Z,1.00
2023-05-16T08:01:43.278Z,0.55
2023-05-16T08:04:09.910Z,0.60
2023-05-16T08:06:37.302Z,0.80
2023-05-16T08:09:04.177Z,0.70
2023-05-16T08:11:31.037Z,0.40
2023-05-16T08:13:57.569Z,0.30
2023-05-16T08:16:24.249Z,0.43
2023-05-16T08:18:50.964Z,0.57
2023-05-16T08:21:17.691Z,0.55
2023-05-16T08:23:44.213Z,0.30
2023-05-16T08:26:10.793Z,0.77
2023-05-16T08:28:37.379Z,0.32
2023-05-16T08:31:03.914Z,0.82
2023-05-16T08:33:30.625Z,0.40
2023-05-16T08:35:57.176Z,1.20
2023-05-16T08:38:24.904Z,0.77
2023-05-16T08:40:51.498Z,0.82
2023-05-16T08:43:18.292Z,0.50
2023-05-16T08:45:45.563Z,0.77
2023-05-16T08:48:12.283Z,0.82
2023-05-16T08:50:38.974Z,0.47
2023-05-16T08:53:08.363Z,0.45
2023-05-16T08:55:36.395Z,0.75
2023-05-16T08:58:04.218Z,0.90
2023-05-16T09:00:31.656Z,1.17
2023-05-16T09:02:58.753Z,0.85
2023-05-16T09:05:26.108Z,0.50
2023-05-16T09:07:52.778Z,0.60
2023-05-16T09:10:19.540Z,0.28
2023-05-16T09:12:46.225Z,0.93
2023-05-16T09:15:13.175Z,0.80
2023-05-16T09:17:45.394Z,0.85
2023-05-16T09:20:14.541Z,1.20
2023-05-16T09:22:51.929Z,0.60
2023-05-16T09:25:29.554Z,0.30
2023-05-16T09:28:02.738Z,0.43
2023-05-16T09:30:32.327Z,0.68
2023-05-16T09:32:59.522Z,0.52
2023-05-16T09:37:56.759Z,0.65
2023-05-16T09:40:24.122Z,0.80
2023-05-16T09:43:05.805Z,0.68
2023-05-16T09:45:34.147Z,0.57
2023-05-16T09:48:09.233Z,1.00
2023-05-16T09:50:37.584Z,0.57
2023-05-16T09:53:05.302Z,0.82
2023-05-16T09:55:32.586Z,0.60
2023-05-16T09:57:59.312Z,0.17
2023-05-16T10:00:33.771Z,0.82
2023-05-16T10:03:05.137Z,0.47
2023-05-16T10:05:32.972Z,0.60
2023-05-16T10:08:00.040Z,0.90
2023-05-16T10:10:27.395Z,1.02
2023-05-16T10:12:58.876Z,0.60
2023-05-16T10:15:26.771Z,0.28
2023-05-16T10:17:57.159Z,0.68
2023-05-16T10:20:24.083Z,0.95
2023-05-16T10:22:53.354Z,1.13
2023-05-16T10:25:41.828Z,0.68
2023-05-16T10:28:12.514Z,0.25
2023-05-16T10:30:41.811Z,0.63
2023-05-16T10:33:09.321Z,0.50
2023-05-16T10:35:37.134Z,0.50
2023-05-16T10:38:07.376Z,0.60
2023-05-16T10:40:36.726Z,0.22
2023-05-16T10:43:05.555Z,0.55
2023-05-16T10:45:32.649Z,0.95
2023-05-16T10:48:02.143Z,0.98
2023-05-16T10:50:41.372Z,0.50
2023-05-16T10:53:23.014Z,0.77
2023-05-16T10:55:58.751Z,0.40
2023-05-16T10:58:39.572Z,0.40
2023-05-16T11:01:23.057Z,0.57
2023-05-16T11:04:04.979Z,1.00
2023-05-16T11:06:40.505Z,0.40
2023-05-16T11:09:16.165Z,0.20
2023-05-16T11:11:53.937Z,0.50
2023-05-16T11:14:47.587Z,0.50
2023-05-16T11:17:21.119Z,0.70
2023-05-16T11:19:47.860Z,0.82
2023-05-16T11:22:23.561Z,0.30
2023-05-16T11:24:56.085Z,0.95
2023-05-16T11:27:28.451Z,0.50
2023-05-16T11:30:01.860Z,0.22
2023-05-16T11:32:30.628Z,0.88
2023-05-16T11:34:58.717Z,0.70
2023-05-16T11:37:25.413Z,0.68
2023-05-16T11:39:52.031Z,0.45
2023-05-16T11:42:18.772Z,0.30
2023-05-16T11:44:45.831Z,0.47
2023-05-16T11:47:12.718Z,0.20
2023-05-16T11:49:39.496Z,0.65
2023-05-16T11:52:08.492Z,0.70
2023-05-16T11:54:35.397Z,0.40
2023-05-16T11:57:02.181Z,0.52
2023-05-16T11:59:29.157Z,0.60
2023-05-16T12:01:55.817Z,0.30
2023-05-16T12:04:23.388Z,0.95
2023-05-16T12:06:59.882Z,0.30
2023-05-16T12:09:26.557Z,0.20
2023-05-16T12:11:53.422Z,0.50
2023-05-16T12:14:20.789Z,0.90
2023-05-16T12:16:49.286Z,0.75
2023-05-16T12:19:18.997Z,0.30
2023-05-16T12:21:45.755Z,0.43
2023-05-16T12:24:12.999Z,0.40
2023-05-16T12:26:42.917Z,0.50
2023-05-16T12:29:11.524Z,0.40
2023-05-16T12:31:40.624Z,1.13
2023-05-16T12:34:18.341Z,1.17
2023-05-16T12:36:44.948Z,1.38
2023-05-16T12:39:14.094Z,1.95
2023-05-16T12:41:45.031Z,1.15
2023-05-16T12:44:19.739Z,0.82
2023-05-16T12:46:52.305Z,1.33
2023-05-16T12:49:22.726Z,2.00
2023-05-16T12:51:53.710Z,0.70
2023-05-16T12:54:22.717Z,1.10
2023-05-16T12:56:49.511Z,0.73
2023-05-16T12:59:16.805Z,1.23
2023-05-16T13:01:44.538Z,1.33
2023-05-16T13:04:16.640Z,1.85
2023-05-16T13:06:57.685Z,0.95
2023-05-16T13:09:29.121Z,1.98
2023-05-16T13:11:59.613Z,1.52
2023-05-16T13:14:26.693Z,0.50
2023-05-16T13:16:53.249Z,1.00
2023-05-16T13:19:20.141Z,1.17
2023-05-16T13:21:46.821Z,1.55
2023-05-16T13:24:13.335Z,0.98
2023-05-16T13:26:39.910Z,1.10
2023-05-16T13:29:06.467Z,0.90
2023-05-16T13:31:33.330Z,2.08
2023-05-16T13:33:59.935Z,1.48
2023-05-16T13:36:26.636Z,1.52
2023-05-16T13:38:53.495Z,1.05
2023-05-16T13:41:20.087Z,2.30
2023-05-16T13:43:46.748Z,2.58
2023-05-16T13:46:13.444Z,1.45
2023-05-16T13:48:40.107Z,1.45
2023-05-16T13:51:06.751Z,1.83
2023-05-16T13:53:33.311Z,0.70
2023-05-16T13:55:59.896Z,1.30
2023-05-16T13:58:27.220Z,1.08
2023-05-16T14:00:54.348Z,1.45
2023-05-16T14:03:21.345Z,1.15
2023-05-16T14:05:49.661Z,1.58
2023-05-16T14:08:16.200Z,1.60
2023-05-16T14:10:42.753Z,0.68
2023-05-16T14:13:09.287Z,1.17
2023-05-16T14:15:36.023Z,0.88
2023-05-16T14:18:04.775Z,0.93
2023-05-16T14:20:31.875Z,1.33
2023-05-16T14:22:58.504Z,0.55
2023-05-16T14:25:25.296Z,1.40
2023-05-16T14:27:51.945Z,1.77
2023-05-16T14:30:18.520Z,2.38
2023-05-16T14:32:45.129Z,1.27
2023-05-16T14:35:11.881Z,3.60
2023-05-16T14:37:38.695Z,1.75
2023-05-16T14:40:06.396Z,0.80
2023-05-16T14:42:32.943Z,0.63
2023-05-16T14:44:59.504Z,1.83
2023-05-16T14:47:26.575Z,1.25
2023-05-16T14:49:54.249Z,1.30
2023-05-16T14:52:22.011Z,1.70
2023-05-16T14:54:48.863Z,1.70
2023-05-16T14:57:15.687Z,2.28
2023-05-16T14:59:42.252Z,1.15
2023-05-16T15:02:08.902Z,3.85
2023-05-16T15:04:35.719Z,1.00
2023-05-16T15:07:02.261Z,2.50
2023-05-16T15:09:28.986Z,0.70
2023-05-16T15:11:55.611Z,2.70
2023-05-16T15:14:22.176Z,1.30
2023-05-16T15:16:48.832Z,1.40
2023-05-16T15:19:15.545Z,1.55
2023-05-16T15:21:42.333Z,1.58
2023-05-16T15:24:09.009Z,0.68
2023-05-16T15:26:35.649Z,1.33
2023-05-16T15:29:02.173Z,1.15
2023-05-16T15:31:29.666Z,1.85
2023-05-16T15:33:56.369Z,2.78
2023-05-16T15:36:23.057Z,0.85
2023-05-16T15:38:49.695Z,1.67
2023-05-16T15:41:33.931Z,2.42
2023-05-16T15:44:02.904Z,1.17
2023-05-16T15:46:32.921Z,1.60
2023-05-16T15:48:59.776Z,1.48
2023-05-16T15:51:26.341Z,2.38
2023-05-16T15:53:53.353Z,1.98
2023-05-16T15:56:19.950Z,1.92
2023-05-16T15:58:46.953Z,1.20
2023-05-16T16:01:13.591Z,2.72
2023-05-16T16:03:40.506Z,2.55
2023-05-16T16:06:07.288Z,1.33
2023-05-16T16:08:33.854Z,3.65
2023-05-16T16:11:00.567Z,1.15
2023-05-16T16:13:27.105Z,1.15
2023-05-16T16:15:53.699Z,3.78
2023-05-16T16:18:20.356Z,2.97
2023-05-16T16:20:46.909Z,2.63
2023-05-16T16:23:13.684Z,0.70
2023-05-16T16:25:40.577Z,2.25
2023-05-16T16:28:07.402Z,2.60
2023-05-16T16:30:34.057Z,1.30
2023-05-16T16:33:00.921Z,1.50
2023-05-16T16:35:28.129Z,2.08
2023-05-16T16:40:29.057Z,2.00
2023-05-16T16:42:55.654Z,1.95
2023-05-16T16:45:22.704Z,1.10
2023-05-16T16:47:49.341Z,1.90
2023-05-16T16:50:16.251Z,1.95
2023-05-16T16:52:43.308Z,1.65
2023-05-16T16:55:10.040Z,2.35
2023-05-16T16:57:36.948Z,2.08
2023-05-16T17:00:03.962Z,3.05
2023-05-16T17:02:30.901Z,2.00
2023-05-16T17:04:57.601Z,2.60
2023-05-16T17:07:24.381Z,1.23
2023-05-16T17:09:51.152Z,1.88
2023-05-16T17:12:22.034Z,4.68
2023-05-16T17:14:50.131Z,2.40
2023-05-16T17:17:17.926Z,2.28
2023-05-16T17:19:46.924Z,2.35
2023-05-16T17:22:13.757Z,3.75
2023-05-16T17:24:40.390Z,3.80
2023-05-16T17:27:07.041Z,1.80
2023-05-16T17:29:33.594Z,1.65
2023-05-16T17:32:00.177Z,2.25
2023-05-16T17:34:26.932Z,2.60
2023-05-16T17:36:53.462Z,2.70
2023-05-16T17:39:20.934Z,2.00
2023-05-16T17:41:47.863Z,1.60
2023-05-16T17:44:14.507Z,2.28
2023-05-16T17:46:42.479Z,1.48
2023-05-16T17:49:09.952Z,1.50
2023-05-16T17:51:50.999Z,2.90
2023-05-16T17:54:18.514Z,2.70
2023-05-16T17:56:46.655Z,3.40
2023-05-16T17:59:13.779Z,2.13
2023-05-16T18:01:41.096Z,2.20
2023-05-16T18:04:08.692Z,2.55
2023-05-16T18:06:37.636Z,2.70
2023-05-16T18:09:10.383Z,1.88
2023-05-16T18:11:39.016Z,2.63
2023-05-16T18:14:05.636Z,2.33
2023-05-16T18:16:32.957Z,2.17
2023-05-16T18:18:59.769Z,1.70
2023-05-16T18:21:26.709Z,2.40
2023-05-16T18:23:54.930Z,1.83
2023-05-16T18:26:22.780Z,1.85
2023-05-16T18:28:49.378Z,2.00
2023-05-16T18:31:16.391Z,1.77
2023-05-16T18:33:43.051Z,2.05
2023-05-16T18:36:09.919Z,1.40
2023-05-16T18:38:36.587Z,1.83
2023-05-16T18:41:03.194Z,2.25
2023-05-16T18:43:30.804Z,2.20
2023-05-16T18:45:57.842Z,2.85
2023-05-16T18:48:24.514Z,2.92
2023-05-16T18:50:51.301Z,1.20
2023-05-16T18:53:17.983Z,1.55
2023-05-16T18:55:44.534Z,2.80
2023-05-16T18:58:11.543Z,4.57
2023-05-16T19:00:38.213Z,3.40
2023-05-16T19:03:05.145Z,1.65
2023-05-16T19:05:32.188Z,1.83
2023-05-16T19:07:59.162Z,1.23
2023-05-16T19:10:25.983Z,1.45
2023-05-16T19:12:52.745Z,3.15
2023-05-16T19:15:19.346Z,2.03
2023-05-16T19:17:47.193Z,2.70
2023-05-16T19:20:13.861Z,2.35
2023-05-16T19:22:40.469Z,1.92
2023-05-16T19:25:07.327Z,2.53
2023-05-16T19:27:33.965Z,2.00
2023-05-16T19:30:00.717Z,2.13
2023-05-16T19:32:28.692Z,2.67
2023-05-16T19:34:55.660Z,3.75
2023-05-16T19:37:23.622Z,2.88
2023-05-16T19:39:50.217Z,2.40
2023-05-16T19:42:16.772Z,2.28
2023-05-16T19:44:43.392Z,2.65
2023-05-16T19:47:10.004Z,1.90
2023-05-16T19:49:36.518Z,1.48
2023-05-16T19:52:04.769Z,3.05
2023-05-16T19:54:31.311Z,2.80
2023-05-16T19:56:57.943Z,2.95
2023-05-16T19:59:24.580Z,2.95
2023-05-16T20:01:53.409Z,3.63
2023-05-16T20:04:20.074Z,3.60
2023-05-16T20:06:48.093Z,3.75
2023-05-16T20:09:14.816Z,4.85
2023-05-16T20:11:41.547Z,4.93
2023-05-16T20:14:08.184Z,2.45
2023-05-16T20:16:34.814Z,1.95
2023-05-16T20:19:01.509Z,3.58
2023-05-16T20:21:28.136Z,2.92
2023-05-16T20:23:54.655Z,6.75
2023-05-16T20:26:21.515Z,2.55
2023-05-16T20:28:48.316Z,2.55
2023-05-16T20:31:15.018Z,3.17
2023-05-16T20:33:41.671Z,3.05
2023-05-16T20:36:08.224Z,3.58
2023-05-16T20:38:34.738Z,3.55
2023-05-16T20:41:03.217Z,3.70
2023-05-16T20:43:29.802Z,2.58
2023-05-16T20:45:56.371Z,3.42
2023-05-16T20:48:23.080Z,1.98
2023-05-16T20:50:49.829Z,3.65
2023-05-16T20:53:16.355Z,3.58
2023-05-16T20:55:42.934Z,3.58
2023-05-16T20:58:09.505Z,2.95
2023-05-16T21:00:36.354Z,3.05
2023-05-16T21:03:03.266Z,3.35
2023-05-16T21:05:29.922Z,3.03
2023-05-16T21:07:56.487Z,3.92
2023-05-16T21:10:23.096Z,3.40
2023-05-16T21:12:50.367Z,2.55
2023-05-16T21:15:17.101Z,2.03
2023-05-16T21:17:43.837Z,3.60
2023-05-16T21:20:10.723Z,3.35
2023-05-16T21:22:37.272Z,1.20
2023-05-16T21:25:04.603Z,2.70
2023-05-16T21:27:31.279Z,3.83
2023-05-16T21:29:57.894Z,2.03
2023-05-16T21:32:24.524Z,2.05
2023-05-16T21:34:51.253Z,2.10
2023-05-16T21:37:17.840Z,2.53
2023-05-16T21:39:44.439Z,1.95
2023-05-16T21:42:11.025Z,1.98
2023-05-16T21:44:37.681Z,2.45
2023-05-16T21:47:04.389Z,2.25
2023-05-16T21:49:31.335Z,1.67
2023-05-16T21:51:57.967Z,1.83
2023-05-16T21:54:24.641Z,1.85
2023-05-16T21:56:51.204Z,2.67
2023-05-16T21:59:17.792Z,3.45
2023-05-16T22:01:44.343Z,2.50
2023-05-16T22:04:10.996Z,3.08
2023-05-16T22:06:37.815Z,2.40
2023-05-16T22:09:04.376Z,3.53
2023-05-16T22:11:31.027Z,1.60
2023-05-16T22:13:57.683Z,1.90
2023-05-16T22:16:24.290Z,2.10
2023-05-16T22:18:50.968Z,2.15
2023-05-16T22:21:17.639Z,2.65
2023-05-16T22:23:44.449Z,2.78
2023-05-16T22:26:11.159Z,2.20
2023-05-16T22:28:37.940Z,1.65
2023-05-16T22:31:07.201Z,1.73
2023-05-16T22:33:33.934Z,4.90
2023-05-16T22:36:03.209Z,2.97
2023-05-16T22:38:29.825Z,3.53
2023-05-16T22:40:56.450Z,3.05
2023-05-16T22:43:22.985Z,3.63
2023-05-16T22:45:51.545Z,1.75
2023-05-16T22:48:18.298Z,2.53
2023-05-16T22:50:44.976Z,2.67
2023-05-16T22:53:11.628Z,3.42
2023-05-16T22:55:38.228Z,3.03
2023-05-16T22:58:04.858Z,2.55
2023-05-16T23:00:31.427Z,1.70
2023-05-16T23:02:58.483Z,2.95
2023-05-16T23:05:25.155Z,3.40
2023-05-16T23:07:51.728Z,2.60
2023-05-16T23:10:18.269Z,3.22
2023-05-16T23:12:44.788Z,1.35
2023-05-16T23:15:11.633Z,2.75
2023-05-16T23:17:38.582Z,2.67
2023-05-16T23:20:06.818Z,2.05
2023-05-16T23:22:33.561Z,3.25
2023-05-16T23:25:00.119Z,3.42
2023-05-16T23:27:26.785Z,3.15
2023-05-16T23:29:53.387Z,2.42
2023-05-16T23:32:20.066Z,3.13
2023-05-16T23:34:46.622Z,2.25
2023-05-16T23:37:13.192Z,3.00
2023-05-16T23:39:39.773Z,1.52
2023-05-16T23:42:06.346Z,2.97
2023-05-16T23:44:33.687Z,2.40
2023-05-16T23:47:00.987Z,2.50
2023-05-16T23:49:27.530Z,2.17
2023-05-16T23:51:58.001Z,4.47
2023-05-16T23:54:27.941Z,1.70
2023-05-16T23:56:54.756Z,3.00
2023-05-16T23:59:21.451Z,3.03
